sensor_id;sensor_type;location;lat;lon;timestamp;pressure;altitude;pressure_sealevel;temperature;humidity
73817;BME280;62146;53.232;-1.304;2023-04-19T00:01:06;101953.41;;;7.64;100.00
73817;BME280;62146;53.232;-1.304;2023-04-19T00:03:33;101947.50;;;7.62;100.00
73817;BME280;62146;53.232;-1.304;2023-04-19T00:06:00;101944.41;;;7.58;100.00
73817;BME280;62146;53.232;-1.304;2023-04-19T00:08:27;101957.22;;;7.61;100.00
73817;BME280;62146;53.232;-1.304;2023-04-19T00:10:54;101962.69;;;7.60;100.00
73817;BME280;62146;53.232;-1.304;2023-04-19T00:13:20;101954.97;;;7.58;100.00
73817;BME280;62146;53.232;-1.304;2023-04-19T00:15:47;101946.94;;;7.52;100.00
73817;BME280;62146;53.232;-1.304;2023-04-19T00:18:14;101945.78;;;7.54;100.00
73817;BME280;62146;53.232;-1.304;2023-04-19T00:20:41;101944.66;;;7.49;100.00
73817;BME280;62146;53.232;-1.304;2023-04-19T00:23:08;101944.59;;;7.43;100.00
73817;BME280;62146;53.232;-1.304;2023-04-19T00:25:34;101944.22;;;7.46;100.00
73817;BME280;62146;53.232;-1.304;2023-04-19T00:28:01;101940.03;;;7.37;100.00
73817;BME280;62146;53.232;-1.304;2023-04-19T00:30:28;101949.56;;;7.38;100.00
73817;BME280;62146;53.232;-1.304;2023-04-19T00:32:54;101939.75;;;7.32;100.00
73817;BME280;62146;53.232;-1.304;2023-04-19T00:35:21;101939.47;;;7.27;100.00
73817;BME280;62146;53.232;-1.304;2023-04-19T00:37:47;101934.56;;;7.24;100.00
73817;BME280;62146;53.232;-1.304;2023-04-19T00:40:14;101940.38;;;7.20;100.00
73817;BME280;62146;53.232;-1.304;2023-04-19T00:42:41;101933.81;;;7.16;100.00
73817;BME280;62146;53.232;-1.304;2023-04-19T00:45:08;101931.72;;;7.11;100.00
73817;BME280;62146;53.232;-1.304;2023-04-19T00:47:35;101935.19;;;7.12;100.00
73817;BME280;62146;53.232;-1.304;2023-04-19T00:50:04;101937.72;;;7.05;100.00
73817;BME280;62146;53.232;-1.304;2023-04-19T00:52:32;101927.34;;;7.04;100.00
73817;BME280;62146;53.232;-1.304;2023-04-19T00:55:00;101924.72;;;7.04;100.00
73817;BME280;62146;53.232;-1.304;2023-04-19T00:57:28;101931.00;;;7.03;100.00
73817;BME280;62146;53.232;-1.304;2023-04-19T00:59:55;101926.88;;;7.00;100.00
73817;BME280;62146;53.232;-1.304;2023-04-19T01:02:22;101934.53;;;6.95;100.00
73817;BME280;62146;53.232;-1.304;2023-04-19T01:04:49;101924.44;;;6.99;100.00
73817;BME280;62146;53.232;-1.304;2023-04-19T01:07:16;101924.78;;;6.96;100.00
73817;BME280;62146;53.232;-1.304;2023-04-19T01:09:43;101913.25;;;6.97;100.00
73817;BME280;62146;53.232;-1.304;2023-04-19T01:12:10;101919.34;;;6.97;100.00
73817;BME280;62146;53.232;-1.304;2023-04-19T01:14:37;101921.59;;;7.00;100.00
73817;BME280;62146;53.232;-1.304;2023-04-19T01:17:04;101920.91;;;7.06;100.00
73817;BME280;62146;53.232;-1.304;2023-04-19T01:19:31;101913.44;;;7.10;100.00
73817;BME280;62146;53.232;-1.304;2023-04-19T01:22:00;101921.81;;;7.13;100.00
73817;BME280;62146;53.232;-1.304;2023-04-19T01:24:29;101920.63;;;7.16;100.00
73817;BME280;62146;53.232;-1.304;2023-04-19T01:26:55;101916.63;;;7.20;100.00
73817;BME280;62146;53.232;-1.304;2023-04-19T01:29:22;101905.72;;;7.22;100.00
73817;BME280;62146;53.232;-1.304;2023-04-19T01:31:49;101911.47;;;7.26;100.00
73817;BME280;62146;53.232;-1.304;2023-04-19T01:34:19;101911.09;;;7.29;100.00
73817;BME280;62146;53.232;-1.304;2023-04-19T01:36:45;101907.09;;;7.33;100.00
73817;BME280;62146;53.232;-1.304;2023-04-19T01:39:12;101904.09;;;7.36;100.00
73817;BME280;62146;53.232;-1.304;2023-04-19T01:41:39;101897.81;;;7.37;100.00
73817;BME280;62146;53.232;-1.304;2023-04-19T01:44:06;101898.28;;;7.40;100.00
73817;BME280;62146;53.232;-1.304;2023-04-19T01:46:33;101895.44;;;7.42;100.00
73817;BME280;62146;53.232;-1.304;2023-04-19T01:49:00;101886.97;;;7.46;100.00
73817;BME280;62146;53.232;-1.304;2023-04-19T01:51:27;101891.06;;;7.48;100.00
73817;BME280;62146;53.232;-1.304;2023-04-19T01:53:53;101887.06;;;7.52;100.00
73817;BME280;62146;53.232;-1.304;2023-04-19T01:56:20;101887.06;;;7.52;100.00
73817;BME280;62146;53.232;-1.304;2023-04-19T01:58:49;101874.13;;;7.57;100.00
73817;BME280;62146;53.232;-1.304;2023-04-19T02:01:16;101882.69;;;7.59;100.00
73817;BME280;62146;53.232;-1.304;2023-04-19T02:03:43;101867.47;;;7.61;100.00
73817;BME280;62146;53.232;-1.304;2023-04-19T02:06:11;101878.03;;;7.61;100.00
73817;BME280;62146;53.232;-1.304;2023-04-19T02:08:41;101876.84;;;7.64;100.00
73817;BME280;62146;53.232;-1.304;2023-04-19T02:11:09;101875.03;;;7.64;100.00
73817;BME280;62146;53.232;-1.304;2023-04-19T02:13:36;101867.56;;;7.68;100.00
73817;BME280;62146;53.232;-1.304;2023-04-19T02:16:03;101870.00;;;7.69;100.00
73817;BME280;62146;53.232;-1.304;2023-04-19T02:18:31;101869.03;;;7.70;100.00
73817;BME280;62146;53.232;-1.304;2023-04-19T02:20:59;101869.84;;;7.71;100.00
73817;BME280;62146;53.232;-1.304;2023-04-19T02:23:25;101871.91;;;7.75;100.00
73817;BME280;62146;53.232;-1.304;2023-04-19T02:25:52;101866.28;;;7.78;100.00
73817;BME280;62146;53.232;-1.304;2023-04-19T02:28:19;101860.19;;;7.77;100.00
73817;BME280;62146;53.232;-1.304;2023-04-19T02:30:45;101866.88;;;7.80;100.00
73817;BME280;62146;53.232;-1.304;2023-04-19T02:33:12;101863.88;;;7.83;100.00
73817;BME280;62146;53.232;-1.304;2023-04-19T02:35:38;101862.06;;;7.83;100.00
73817;BME280;62146;53.232;-1.304;2023-04-19T02:38:05;101860.22;;;7.84;100.00
73817;BME280;62146;53.232;-1.304;2023-04-19T02:40:31;101866.78;;;7.88;100.00
73817;BME280;62146;53.232;-1.304;2023-04-19T02:42:58;101860.50;;;7.89;100.00
73817;BME280;62146;53.232;-1.304;2023-04-19T02:45:25;101856.22;;;7.88;100.00
73817;BME280;62146;53.232;-1.304;2023-04-19T02:47:51;101853.56;;;7.88;100.00
73817;BME280;62146;53.232;-1.304;2023-04-19T02:50:18;101857.41;;;7.85;100.00
73817;BME280;62146;53.232;-1.304;2023-04-19T02:52:45;101849.50;;;7.85;100.00
73817;BME280;62146;53.232;-1.304;2023-04-19T02:55:11;101851.69;;;7.82;100.00
73817;BME280;62146;53.232;-1.304;2023-04-19T02:57:38;101849.63;;;7.77;100.00
73817;BME280;62146;53.232;-1.304;2023-04-19T03:00:05;101849.78;;;7.76;100.00
73817;BME280;62146;53.232;-1.304;2023-04-19T03:02:32;101840.44;;;7.74;100.00
73817;BME280;62146;53.232;-1.304;2023-04-19T03:04:59;101847.53;;;7.73;100.00
73817;BME280;62146;53.232;-1.304;2023-04-19T03:07:26;101845.88;;;7.72;100.00
73817;BME280;62146;53.232;-1.304;2023-04-19T03:09:52;101842.63;;;7.70;100.00
73817;BME280;62146;53.232;-1.304;2023-04-19T03:12:19;101845.06;;;7.72;100.00
73817;BME280;62146;53.232;-1.304;2023-04-19T03:14:45;101841.41;;;7.73;100.00
73817;BME280;62146;53.232;-1.304;2023-04-19T03:17:12;101842.25;;;7.73;100.00
73817;BME280;62146;53.232;-1.304;2023-04-19T03:19:38;101841.88;;;7.76;100.00
73817;BME280;62146;53.232;-1.304;2023-04-19T03:22:05;101837.22;;;7.78;100.00
73817;BME280;62146;53.232;-1.304;2023-04-19T03:24:32;101839.50;;;7.81;100.00
73817;BME280;62146;53.232;-1.304;2023-04-19T03:27:02;101842.75;;;7.83;100.00
73817;BME280;62146;53.232;-1.304;2023-04-19T03:29:28;101838.75;;;7.87;100.00
73817;BME280;62146;53.232;-1.304;2023-04-19T03:31:55;101836.75;;;7.89;100.00
73817;BME280;62146;53.232;-1.304;2023-04-19T03:34:21;101841.00;;;7.90;100.00
73817;BME280;62146;53.232;-1.304;2023-04-19T03:36:48;101838.97;;;7.92;100.00
73817;BME280;62146;53.232;-1.304;2023-04-19T03:39:14;101839.63;;;7.94;100.00
73817;BME280;62146;53.232;-1.304;2023-04-19T03:41:41;101838.44;;;7.96;100.00
73817;BME280;62146;53.232;-1.304;2023-04-19T03:44:08;101843.34;;;7.99;100.00
73817;BME280;62146;53.232;-1.304;2023-04-19T03:46:34;101836.22;;;8.00;100.00
73817;BME280;62146;53.232;-1.304;2023-04-19T03:49:01;101836.66;;;8.03;100.00
73817;BME280;62146;53.232;-1.304;2023-04-19T03:51:27;101832.88;;;8.05;100.00
73817;BME280;62146;53.232;-1.304;2023-04-19T03:53:54;101834.50;;;8.06;100.00
73817;BME280;62146;53.232;-1.304;2023-04-19T03:56:20;101840.59;;;8.07;100.00
73817;BME280;62146;53.232;-1.304;2023-04-19T03:58:50;101834.13;;;8.09;100.00
73817;BME280;62146;53.232;-1.304;2023-04-19T04:01:20;101825.19;;;8.10;100.00
73817;BME280;62146;53.232;-1.304;2023-04-19T04:03:47;101832.94;;;8.12;100.00
73817;BME280;62146;53.232;-1.304;2023-04-19T04:06:14;101827.66;;;8.12;100.00
73817;BME280;62146;53.232;-1.304;2023-04-19T04:08:41;101826.44;;;8.14;100.00
73817;BME280;62146;53.232;-1.304;2023-04-19T04:11:07;101828.91;;;8.16;100.00
73817;BME280;62146;53.232;-1.304;2023-04-19T04:13:34;101828.91;;;8.16;100.00
73817;BME280;62146;53.232;-1.304;2023-04-19T04:16:00;101823.63;;;8.16;100.00
73817;BME280;62146;53.232;-1.304;2023-04-19T04:18:27;101834.00;;;8.17;100.00
73817;BME280;62146;53.232;-1.304;2023-04-19T04:20:54;101825.91;;;8.19;100.00
73817;BME280;62146;53.232;-1.304;2023-04-19T04:23:21;101820.41;;;8.20;100.00
73817;BME280;62146;53.232;-1.304;2023-04-19T04:25:57;101831.59;;;8.22;100.00
73817;BME280;62146;53.232;-1.304;2023-04-19T04:28:27;101828.97;;;8.22;100.00
73817;BME280;62146;53.232;-1.304;2023-04-19T04:30:55;101826.31;;;8.22;100.00
73817;BME280;62146;53.232;-1.304;2023-04-19T04:33:27;101839.16;;;8.25;100.00
73817;BME280;62146;53.232;-1.304;2023-04-19T04:35:54;101830.41;;;8.25;100.00
73817;BME280;62146;53.232;-1.304;2023-04-19T04:38:21;101836.50;;;8.25;100.00
73817;BME280;62146;53.232;-1.304;2023-04-19T04:40:51;101829.41;;;8.26;100.00
73817;BME280;62146;53.232;-1.304;2023-04-19T04:43:23;101832.03;;;8.26;100.00
73817;BME280;62146;53.232;-1.304;2023-04-19T04:45:51;101839.59;;;8.28;100.00
73817;BME280;62146;53.232;-1.304;2023-04-19T04:48:21;101831.47;;;8.30;100.00
73817;BME280;62146;53.232;-1.304;2023-04-19T04:50:47;101831.91;;;8.33;100.00
73817;BME280;62146;53.232;-1.304;2023-04-19T04:53:14;101830.28;;;8.32;100.00
73817;BME280;62146;53.232;-1.304;2023-04-19T04:55:40;101835.41;;;8.34;100.00
73817;BME280;62146;53.232;-1.304;2023-04-19T04:58:07;101836.81;;;8.36;100.00
73817;BME280;62146;53.232;-1.304;2023-04-19T05:00:33;101841.50;;;8.34;100.00
73817;BME280;62146;53.232;-1.304;2023-04-19T05:03:00;101842.09;;;8.36;100.00
73817;BME280;62146;53.232;-1.304;2023-04-19T05:05:28;101841.09;;;8.37;100.00
73817;BME280;62146;53.232;-1.304;2023-04-19T05:07:55;101834.81;;;8.38;100.00
73817;BME280;62146;53.232;-1.304;2023-04-19T05:10:22;101841.75;;;8.39;100.00
73817;BME280;62146;53.232;-1.304;2023-04-19T05:12:48;101847.63;;;8.41;100.00
73817;BME280;62146;53.232;-1.304;2023-04-19T05:15:15;101844.00;;;8.42;100.00
73817;BME280;62146;53.232;-1.304;2023-04-19T05:17:42;101840.56;;;8.42;100.00
73817;BME280;62146;53.232;-1.304;2023-04-19T05:20:09;101834.84;;;8.45;100.00
73817;BME280;62146;53.232;-1.304;2023-04-19T05:22:36;101840.97;;;8.45;100.00
73817;BME280;62146;53.232;-1.304;2023-04-19T05:25:03;101837.34;;;8.46;100.00
73817;BME280;62146;53.232;-1.304;2023-04-19T05:27:30;101847.69;;;8.48;100.00
73817;BME280;62146;53.232;-1.304;2023-04-19T05:29:56;101840.59;;;8.48;100.00
73817;BME280;62146;53.232;-1.304;2023-04-19T05:32:23;101855.25;;;8.51;100.00
73817;BME280;62146;53.232;-1.304;2023-04-19T05:34:50;101844.69;;;8.51;100.00
73817;BME280;62146;53.232;-1.304;2023-04-19T05:37:16;101834.72;;;8.53;100.00
73817;BME280;62146;53.232;-1.304;2023-04-19T05:39:43;101836.38;;;8.54;100.00
73817;BME280;62146;53.232;-1.304;2023-04-19T05:42:10;101845.94;;;8.55;100.00
73817;BME280;62146;53.232;-1.304;2023-04-19T05:44:36;101849.38;;;8.55;100.00
73817;BME280;62146;53.232;-1.304;2023-04-19T05:47:04;101852.69;;;8.57;100.00
73817;BME280;62146;53.232;-1.304;2023-04-19T05:49:30;101843.53;;;8.59;100.00
73817;BME280;62146;53.232;-1.304;2023-04-19T05:51:57;101847.78;;;8.60;100.00
73817;BME280;62146;53.232;-1.304;2023-04-19T05:54:23;101843.16;;;8.62;100.00
73817;BME280;62146;53.232;-1.304;2023-04-19T05:56:50;101846.44;;;8.64;100.00
73817;BME280;62146;53.232;-1.304;2023-04-19T05:59:16;101855.78;;;8.67;100.00
73817;BME280;62146;53.232;-1.304;2023-04-19T06:01:43;101846.84;;;8.68;100.00
73817;BME280;62146;53.232;-1.304;2023-04-19T06:04:10;101852.97;;;8.68;100.00
73817;BME280;62146;53.232;-1.304;2023-04-19T06:06:36;101850.94;;;8.70;100.00
73817;BME280;62146;53.232;-1.304;2023-04-19T06:09:03;101855.84;;;8.73;100.00
73817;BME280;62146;53.232;-1.304;2023-04-19T06:11:30;101860.94;;;8.75;100.00
73817;BME280;62146;53.232;-1.304;2023-04-19T06:14:12;101862.38;;;8.77;100.00
73817;BME280;62146;53.232;-1.304;2023-04-19T06:16:40;101861.19;;;8.80;100.00
73817;BME280;62146;53.232;-1.304;2023-04-19T06:19:07;101862.00;;;8.80;100.00
73817;BME280;62146;53.232;-1.304;2023-04-19T06:21:33;101872.19;;;8.83;100.00
73817;BME280;62146;53.232;-1.304;2023-04-19T06:24:00;101863.88;;;8.86;100.00
73817;BME280;62146;53.232;-1.304;2023-04-19T06:26:28;101870.78;;;8.87;100.00
73817;BME280;62146;53.232;-1.304;2023-04-19T06:28:55;101866.13;;;8.89;100.00
73817;BME280;62146;53.232;-1.304;2023-04-19T06:31:21;101871.88;;;8.92;100.00
73817;BME280;62146;53.232;-1.304;2023-04-19T06:33:48;101869.00;;;8.94;100.00
73817;BME280;62146;53.232;-1.304;2023-04-19T06:36:15;101870.63;;;8.95;100.00
73817;BME280;62146;53.232;-1.304;2023-04-19T06:38:41;101864.16;;;8.97;100.00
73817;BME280;62146;53.232;-1.304;2023-04-19T06:41:09;101867.22;;;9.01;100.00
73817;BME280;62146;53.232;-1.304;2023-04-19T06:43:36;101864.38;;;9.02;100.00
73817;BME280;62146;53.232;-1.304;2023-04-19T06:46:03;101866.66;;;9.05;100.00
73817;BME280;62146;53.232;-1.304;2023-04-19T06:48:33;101869.72;;;9.08;100.00
73817;BME280;62146;53.232;-1.304;2023-04-19T06:51:00;101864.06;;;9.11;100.00
73817;BME280;62146;53.232;-1.304;2023-04-19T06:53:27;101862.84;;;9.14;100.00
73817;BME280;62146;53.232;-1.304;2023-04-19T06:55:59;101869.56;;;9.16;100.00
73817;BME280;62146;53.232;-1.304;2023-04-19T06:58:29;101871.03;;;9.19;100.00
73817;BME280;62146;53.232;-1.304;2023-04-19T07:00:59;101863.69;;;9.21;100.00
73817;BME280;62146;53.232;-1.304;2023-04-19T07:03:26;101867.78;;;9.23;100.00
73817;BME280;62146;53.232;-1.304;2023-04-19T07:05:53;101870.88;;;9.27;100.00
73817;BME280;62146;53.232;-1.304;2023-04-19T07:08:23;101867.84;;;9.30;100.00
73817;BME280;62146;53.232;-1.304;2023-04-19T07:10:57;101860.50;;;9.32;100.00
73817;BME280;62146;53.232;-1.304;2023-04-19T07:13:24;101861.56;;;9.37;100.00
73817;BME280;62146;53.232;-1.304;2023-04-19T07:15:50;101862.97;;;9.39;100.00
73817;BME280;62146;53.232;-1.304;2023-04-19T07:18:17;101861.56;;;9.43;100.00
73817;BME280;62146;53.232;-1.304;2023-04-19T07:20:43;101873.22;;;9.49;100.00
73817;BME280;62146;53.232;-1.304;2023-04-19T07:23:14;101870.16;;;9.52;100.00
73817;BME280;62146;53.232;-1.304;2023-04-19T07:25:40;101866.09;;;9.56;100.00
73817;BME280;62146;53.232;-1.304;2023-04-19T07:28:07;101871.81;;;9.59;100.00
73817;BME280;62146;53.232;-1.304;2023-04-19T07:30:34;101874.72;;;9.64;100.00
73817;BME280;62146;53.232;-1.304;2023-04-19T07:33:01;101877.97;;;9.66;100.00
73817;BME280;62146;53.232;-1.304;2023-04-19T07:35:29;101880.03;;;9.70;100.00
73817;BME280;62146;53.232;-1.304;2023-04-19T07:37:56;101883.09;;;9.74;100.00
73817;BME280;62146;53.232;-1.304;2023-04-19T07:40:22;101884.53;;;9.76;100.00
73817;BME280;62146;53.232;-1.304;2023-04-19T07:42:49;101877.19;;;9.78;100.00
73817;BME280;62146;53.232;-1.304;2023-04-19T07:45:16;101886.59;;;9.81;100.00
73817;BME280;62146;53.232;-1.304;2023-04-19T07:47:43;101879.88;;;9.85;100.00
73817;BME280;62146;53.232;-1.304;2023-04-19T07:50:10;101879.72;;;9.86;100.00
73817;BME280;62146;53.232;-1.304;2023-04-19T07:52:37;101885.44;;;9.89;100.00
73817;BME280;62146;53.232;-1.304;2023-04-19T07:55:04;101880.38;;;9.94;100.00
73817;BME280;62146;53.232;-1.304;2023-04-19T07:57:31;101883.63;;;9.96;100.00
73817;BME280;62146;53.232;-1.304;2023-04-19T07:59:57;101885.66;;;10.01;100.00
73817;BME280;62146;53.232;-1.304;2023-04-19T08:02:25;101881.59;;;10.05;100.00
73817;BME280;62146;53.232;-1.304;2023-04-19T08:04:53;101888.97;;;10.09;100.00
73817;BME280;62146;53.232;-1.304;2023-04-19T08:07:20;101889.78;;;10.16;100.00
73817;BME280;62146;53.232;-1.304;2023-04-19T08:09:48;101879.59;;;10.19;100.00
73817;BME280;62146;53.232;-1.304;2023-04-19T08:12:15;101881.66;;;10.24;100.00
73817;BME280;62146;53.232;-1.304;2023-04-19T08:14:58;101879.22;;;10.29;100.00
73817;BME280;62146;53.232;-1.304;2023-04-19T08:17:40;101880.25;;;10.34;100.00
73817;BME280;62146;53.232;-1.304;2023-04-19T08:20:10;101884.13;;;10.38;100.00
73817;BME280;62146;53.232;-1.304;2023-04-19T08:22:39;101886.38;;;10.41;100.00
73817;BME280;62146;53.232;-1.304;2023-04-19T08:25:06;101885.97;;;10.44;100.00
73817;BME280;62146;53.232;-1.304;2023-04-19T08:27:34;101892.50;;;10.48;100.00
73817;BME280;62146;53.232;-1.304;2023-04-19T08:30:01;101891.28;;;10.50;100.00
73817;BME280;62146;53.232;-1.304;2023-04-19T08:32:28;101886.38;;;10.54;100.00
73817;BME280;62146;53.232;-1.304;2023-04-19T08:34:55;101885.97;;;10.57;100.00
73817;BME280;62146;53.232;-1.304;2023-04-19T08:37:22;101883.53;;;10.62;100.00
73817;BME280;62146;53.232;-1.304;2023-04-19T08:39:49;101883.75;;;10.67;100.00
73817;BME280;62146;53.232;-1.304;2023-04-19T08:42:17;101872.53;;;10.71;100.00
73817;BME280;62146;53.232;-1.304;2023-04-19T08:44:49;101873.53;;;10.76;100.00
73817;BME280;62146;53.232;-1.304;2023-04-19T08:47:36;101876.19;;;10.83;100.00
73817;BME280;62146;53.232;-1.304;2023-04-19T08:50:22;101880.66;;;10.89;100.00
73817;BME280;62146;53.232;-1.304;2023-04-19T08:52:59;101882.28;;;10.96;100.00
73817;BME280;62146;53.232;-1.304;2023-04-19T08:55:47;101880.66;;;11.01;100.00
73817;BME280;62146;53.232;-1.304;2023-04-19T08:58:17;101880.66;;;11.08;100.00
73817;BME280;62146;53.232;-1.304;2023-04-19T09:01:06;101881.44;;;11.15;100.00
73817;BME280;62146;53.232;-1.304;2023-04-19T09:03:43;101875.34;;;11.21;100.00
73817;BME280;62146;53.232;-1.304;2023-04-19T09:06:28;101879.59;;;11.28;100.00
73817;BME280;62146;53.232;-1.304;2023-04-19T09:09:13;101877.94;;;11.33;100.00
73817;BME280;62146;53.232;-1.304;2023-04-19T09:12:00;101881.44;;;11.40;100.00
73817;BME280;62146;53.232;-1.304;2023-04-19T09:14:27;101878.16;;;11.45;100.00
73817;BME280;62146;53.232;-1.304;2023-04-19T09:17:11;101877.09;;;11.52;100.00
73817;BME280;62146;53.232;-1.304;2023-04-19T09:19:48;101879.94;;;11.57;100.00
73817;BME280;62146;53.232;-1.304;2023-04-19T09:22:15;101873.81;;;11.63;100.00
73817;BME280;62146;53.232;-1.304;2023-04-19T09:24:42;101876.44;;;11.69;100.00
73817;BME280;62146;53.232;-1.304;2023-04-19T09:27:11;101870.28;;;11.75;100.00
73817;BME280;62146;53.232;-1.304;2023-04-19T09:29:38;101868.41;;;11.82;100.00
73817;BME280;62146;53.232;-1.304;2023-04-19T09:32:05;101879.00;;;11.88;100.00
73817;BME280;62146;53.232;-1.304;2023-04-19T09:34:31;101871.78;;;11.95;100.00
73817;BME280;62146;53.232;-1.304;2023-04-19T09:37:11;101875.06;;;12.04;100.00
73817;BME280;62146;53.232;-1.304;2023-04-19T09:39:58;101876.41;;;12.12;100.00
73817;BME280;62146;53.232;-1.304;2023-04-19T09:42:43;101869.81;;;12.21;100.00
73817;BME280;62146;53.232;-1.304;2023-04-19T09:48:08;101864.34;;;12.40;100.00
73817;BME280;62146;53.232;-1.304;2023-04-19T09:50:50;101865.75;;;12.49;100.00
73817;BME280;62146;53.232;-1.304;2023-04-19T09:53:28;101863.19;;;12.60;100.00
73817;BME280;62146;53.232;-1.304;2023-04-19T09:55:55;101858.41;;;12.69;100.00
73817;BME280;62146;53.232;-1.304;2023-04-19T09:58:28;101854.47;;;12.78;100.00
73817;BME280;62146;53.232;-1.304;2023-04-19T10:01:12;101857.25;;;12.89;100.00
73817;BME280;62146;53.232;-1.304;2023-04-19T10:03:43;101851.84;;;12.95;100.00
73817;BME280;62146;53.232;-1.304;2023-04-19T10:06:15;101854.25;;;13.03;100.00
73817;BME280;62146;53.232;-1.304;2023-04-19T10:09:03;101851.72;;;13.08;100.00
73817;BME280;62146;53.232;-1.304;2023-04-19T10:11:34;101843.06;;;13.12;100.00
73817;BME280;62146;53.232;-1.304;2023-04-19T10:14:10;101850.75;;;13.20;100.00
73817;BME280;62146;53.232;-1.304;2023-04-19T10:16:37;101842.94;;;13.25;100.00
73817;BME280;62146;53.232;-1.304;2023-04-19T10:19:10;101844.47;;;13.33;100.00
73817;BME280;62146;53.232;-1.304;2023-04-19T10:21:39;101840.69;;;13.40;100.00
73817;BME280;62146;53.232;-1.304;2023-04-19T10:24:11;101838.56;;;13.48;100.00
73817;BME280;62146;53.232;-1.304;2023-04-19T10:27:07;101842.31;;;13.59;100.00
73817;BME280;62146;53.232;-1.304;2023-04-19T10:29:53;101853.53;;;13.67;100.00
73817;BME280;62146;53.232;-1.304;2023-04-19T10:32:19;101835.56;;;13.74;100.00
73817;BME280;62146;53.232;-1.304;2023-04-19T10:34:46;101836.91;;;13.83;100.00
73817;BME280;62146;53.232;-1.304;2023-04-19T10:37:13;101834.13;;;13.89;100.00
73817;BME280;62146;53.232;-1.304;2023-04-19T10:39:41;101833.25;;;13.95;100.00
73817;BME280;62146;53.232;-1.304;2023-04-19T10:42:08;101830.72;;;14.00;100.00
73817;BME280;62146;53.232;-1.304;2023-04-19T10:44:34;101823.09;;;14.03;100.00
73817;BME280;62146;53.232;-1.304;2023-04-19T10:47:04;101826.47;;;14.10;100.00
73817;BME280;62146;53.232;-1.304;2023-04-19T10:49:43;101835.41;;;14.16;100.00
73817;BME280;62146;53.232;-1.304;2023-04-19T10:52:30;101831.59;;;14.23;100.00
73817;BME280;62146;53.232;-1.304;2023-04-19T10:54:56;101828.03;;;14.29;100.00
73817;BME280;62146;53.232;-1.304;2023-04-19T10:57:23;101829.78;;;14.35;100.00
73817;BME280;62146;53.232;-1.304;2023-04-19T11:00:20;101824.34;;;14.41;100.00
73817;BME280;62146;53.232;-1.304;2023-04-19T11:02:47;101814.59;;;14.46;100.00
73817;BME280;62146;53.232;-1.304;2023-04-19T11:05:13;101815.31;;;14.53;100.00
73817;BME280;62146;53.232;-1.304;2023-04-19T11:07:41;101806.38;;;14.59;100.00
73817;BME280;62146;53.232;-1.304;2023-04-19T11:10:08;101808.13;;;14.65;100.00
73817;BME280;62146;53.232;-1.304;2023-04-19T11:12:35;101800.81;;;14.72;100.00
73817;BME280;62146;53.232;-1.304;2023-04-19T11:15:02;101799.66;;;14.79;100.00
73817;BME280;62146;53.232;-1.304;2023-04-19T11:17:31;101802.22;;;14.86;100.00
73817;BME280;62146;53.232;-1.304;2023-04-19T11:20:08;101812.19;;;14.90;100.00
73817;BME280;62146;53.232;-1.304;2023-04-19T11:22:38;101813.13;;;14.96;100.00
73817;BME280;62146;53.232;-1.304;2023-04-19T11:27:32;101796.28;;;15.06;100.00
73817;BME280;62146;53.232;-1.304;2023-04-19T11:30:04;101795.38;;;15.12;100.00
73817;BME280;62146;53.232;-1.304;2023-04-19T11:32:31;101798.94;;;15.18;100.00
73817;BME280;62146;53.232;-1.304;2023-04-19T11:35:06;101793.50;;;15.24;100.00
73817;BME280;62146;53.232;-1.304;2023-04-19T11:37:35;101804.97;;;15.36;100.00
73817;BME280;62146;53.232;-1.304;2023-04-19T11:40:02;101798.19;;;15.45;100.00
73817;BME280;62146;53.232;-1.304;2023-04-19T11:42:31;101791.41;;;15.53;100.00
73817;BME280;62146;53.232;-1.304;2023-04-19T11:44:58;101801.25;;;15.64;100.00
73817;BME280;62146;53.232;-1.304;2023-04-19T11:47:25;101796.13;;;15.74;100.00
73817;BME280;62146;53.232;-1.304;2023-04-19T11:49:55;101795.47;;;15.83;100.00
73817;BME280;62146;53.232;-1.304;2023-04-19T11:52:25;101791.06;;;15.89;100.00
73817;BME280;62146;53.232;-1.304;2023-04-19T11:54:52;101791.41;;;15.92;100.00
73817;BME280;62146;53.232;-1.304;2023-04-19T11:57:29;101794.41;;;15.96;100.00
73817;BME280;62146;53.232;-1.304;2023-04-19T12:00:04;101788.53;;;15.99;100.00
73817;BME280;62146;53.232;-1.304;2023-04-19T12:02:38;101777.94;;;16.04;100.00
73817;BME280;62146;53.232;-1.304;2023-04-19T12:05:09;101784.44;;;16.08;100.00
73817;BME280;62146;53.232;-1.304;2023-04-19T12:07:56;101781.88;;;16.12;100.00
73817;BME280;62146;53.232;-1.304;2023-04-19T12:10:23;101780.69;;;16.20;100.00
73817;BME280;62146;53.232;-1.304;2023-04-19T12:12:50;101777.00;;;16.26;100.00
73817;BME280;62146;53.232;-1.304;2023-04-19T12:15:16;101784.91;;;16.32;100.00
73817;BME280;62146;53.232;-1.304;2023-04-19T12:18:00;101769.97;;;16.36;100.00
73817;BME280;62146;53.232;-1.304;2023-04-19T12:20:33;101773.28;;;16.43;100.00
73817;BME280;62146;53.232;-1.304;2023-04-19T12:23:01;101776.31;;;16.46;100.00
73817;BME280;62146;53.232;-1.304;2023-04-19T12:25:33;101773.69;;;16.51;100.00
73817;BME280;62146;53.232;-1.304;2023-04-19T12:28:02;101784.72;;;16.55;100.00
73817;BME280;62146;53.232;-1.304;2023-04-19T12:30:29;101774.66;;;16.62;100.00
73817;BME280;62146;53.232;-1.304;2023-04-19T12:32:57;101767.03;;;16.70;100.00
73817;BME280;62146;53.232;-1.304;2023-04-19T12:35:25;101760.00;;;16.85;100.00
73817;BME280;62146;53.232;-1.304;2023-04-19T12:37:54;101759.47;;;17.04;100.00
73817;BME280;62146;53.232;-1.304;2023-04-19T12:40:21;101761.16;;;17.26;100.00
73817;BME280;62146;53.232;-1.304;2023-04-19T12:42:48;101762.94;;;17.42;100.00
73817;BME280;62146;53.232;-1.304;2023-04-19T12:45:16;101755.31;;;17.55;100.00
73817;BME280;62146;53.232;-1.304;2023-04-19T12:47:43;101764.91;;;17.72;100.00
73817;BME280;62146;53.232;-1.304;2023-04-19T12:50:11;101764.56;;;17.90;100.00